Database: COMPET-N - COOP - 3PL - 4PL - CNDOOM

WAD: Doom | Doom 2 | TNT | Plutonia | AV | HR | Scythe | MM | MM2 | Requiem | CE
Category: speed | nmare | max | nm100s | tyson | pacifist | fast | respawn | nomo | misc | built | all
Highscore: ALL | IWAD | PWAD | Country | Continent

< Previous map       Next map >
Remove: wad | map | category | player | allMAP02
MapPlayerTimeDateFilenameCommentsDL
MAP02: Human BBQPeo Sjoblom2:15.001997-02-27ev02-215.zip598
MAP02: Human BBQVincent Catalaa1:14.002000-02-25ev02-114.zip637
MAP02: Human BBQVaclav Kunes59.002001-01-08ev02-059.zip605
MAP02: Human BBQAdam Hegyi50.002001-01-09ev02-050.zip660
MAP02: Human BBQVincent Catalaa46.002001-01-11ev02-046.zip644
MAP02: Human BBQJim Leonard45.002005-02-03ev02-045.zip700
MAP02: Human BBQVincent Catalaa41.002005-02-07ev02-041.zip649
MAP02: Human BBQDrew DeVore38.002005-10-04ev02-038.zip910
MAP02: Human BBQDrew DeVore2:36.002003-04-20tn02-236.zip602
MAP02: Human BBQJim Leonard2:02.002005-08-01tn02-202.zip684
MAP02: Human BBQJim Leonard1:44.002013-07-25tn02-144.zip697
MAP02: Human BBQErick Tenorio1:38.002018-02-03tn02-138.zip1025
MAP02: Human BBQJim Leonard1:37.002020-02-14tn02-137.zip688
MAP02: Human BBQKai-Uwe Humpert5:36.001996-10-17ev02-536.zip552
MAP02: Human BBQKai-Uwe Humpert4:57.001997-01-28ev02-457.zip522
MAP02: Human BBQChris Ratcliff4:51.002000-11-23ev02-451.zip592
MAP02: Human BBQRadek Pecka4:37.002000-12-15ev02-437.zip581
MAP02: Human BBQYashar Garibzadeh4:19.002001-01-31ev02-419.zip579
MAP02: Human BBQRadek Pecka3:57.002001-02-15ev02-357.zip580
MAP02: Human BBQYashar Garibzadeh3:52.002001-02-20ev02-352.zip577
MAP02: Human BBQRadek Pecka3:37.002001-02-23ev02-337.zip568
MAP02: Human BBQYashar Garibzadeh3:34.002001-03-16ev02-334.zip596
MAP02: Human BBQRadek Pecka3:27.002001-03-31ev02-327.zip607
MAP02: Human BBQRadek Pecka3:20.002001-03-31ev02-320.zip587
MAP02: Human BBQJim Leonard3:10.002005-02-02ev02-310.zip914
MAP02: Human BBQJim Leonard20:19.002001-06-13et022019.zip680
MAP02: Human BBQJim Leonard8:55.002005-06-28et02-855.zip696
MAP02: Human BBQJ4rio 8:05.002012-06-21et02-805.zip589
MAP02: Human BBQJim Leonard7:33.002012-07-14et02-733.zip933
MAP02: Human BBQAdam Williamson1:12.002001-12-18ep02-112.zip855
MAP02: Human BBQYonatan Donner10:16.001997-01-10tnt02-gm.zip541
MAP02: Human BBQJim Leonard8:44.002001-08-29ef02-844.zip681
MAP02: Human BBQRadek Pecka7:33.002003-02-16ef02-733.zip566
MAP02: Human BBQJim Leonard5:42.002005-08-01ef02-542.zip920
MAP02: Human BBQJim Leonard6:17.002002-08-15er02-617.zip870
Remove: wad | map | category | player | all